createdAt,value
2023-05-15T00:02:27.873Z,98137.63
2023-05-15T00:04:54.687Z,98134.06
2023-05-15T00:07:21.433Z,98139.28
2023-05-15T00:09:48.107Z,98133.50
2023-05-15T00:12:15.436Z,98129.94
2023-05-15T00:14:42.059Z,98132.63
2023-05-15T00:17:09.807Z,98130.50
2023-05-15T00:19:36.463Z,98122.72
2023-05-15T00:22:03.044Z,98114.47
2023-05-15T00:24:29.792Z,98113.28
2023-05-15T00:26:56.455Z,98110.50
2023-05-15T00:29:23.883Z,98116.81
2023-05-15T00:31:50.792Z,98116.03
2023-05-15T00:34:17.602Z,98107.50
2023-05-15T00:36:44.732Z,98116.06
2023-05-15T00:39:11.587Z,98113.69
2023-05-15T00:41:40.635Z,98108.69
2023-05-15T00:44:09.607Z,98117.28
2023-05-15T00:46:37.668Z,98113.56
2023-05-15T00:49:06.671Z,98111.78
2023-05-15T00:51:33.309Z,98109.59
2023-05-15T00:53:59.983Z,98102.69
2023-05-15T00:56:30.352Z,98111.09
2023-05-15T00:58:59.626Z,98097.75
2023-05-15T01:01:26.539Z,98098.50
2023-05-15T01:03:53.329Z,98102.94
2023-05-15T01:06:20.625Z,98098.28
2023-05-15T01:08:49.245Z,98098.28
2023-05-15T01:11:17.368Z,98102.94
2023-05-15T01:13:45.910Z,98107.13
2023-05-15T01:16:12.704Z,98103.50
2023-05-15T01:18:39.425Z,98103.91
2023-05-15T01:21:06.255Z,98097.16
2023-05-15T01:23:38.992Z,98098.03
2023-05-15T01:26:11.567Z,98106.13
2023-05-15T01:28:48.423Z,98102.94
2023-05-15T01:31:19.314Z,98103.94
2023-05-15T01:33:50.348Z,98109.00
2023-05-15T01:36:56.595Z,98104.47
2023-05-15T01:39:27.771Z,98102.81
2023-05-15T01:42:08.133Z,98097.97
2023-05-15T01:44:38.436Z,98101.34
2023-05-15T01:47:13.593Z,98095.34
2023-05-15T01:49:43.022Z,98089.88
2023-05-15T01:52:27.809Z,98098.88
2023-05-15T01:54:55.323Z,98100.25
2023-05-15T01:57:23.301Z,98103.28
2023-05-15T01:59:51.226Z,98104.69
2023-05-15T02:02:19.449Z,98110.44
2023-05-15T02:04:48.022Z,98095.69
2023-05-15T02:07:15.468Z,98099.56
2023-05-15T02:09:43.217Z,98099.97
2023-05-15T02:12:10.811Z,98097.22
2023-05-15T02:14:39.353Z,98103.31
2023-05-15T02:17:06.454Z,98109.44
2023-05-15T02:19:33.237Z,98098.72
2023-05-15T02:22:05.567Z,98097.91
2023-05-15T02:24:33.407Z,98088.34
2023-05-15T02:27:22.474Z,98086.59
2023-05-15T02:29:52.164Z,98084.81
2023-05-15T02:32:33.827Z,98083.91
2023-05-15T02:35:09.039Z,98084.13
2023-05-15T02:37:40.024Z,98085.09
2023-05-15T02:40:11.380Z,98087.84
2023-05-15T02:42:40.342Z,98090.50
2023-05-15T02:45:09.562Z,98090.63
2023-05-15T02:47:37.006Z,98087.38
2023-05-15T02:50:05.042Z,98087.56
2023-05-15T02:52:34.822Z,98077.75
2023-05-15T02:55:01.704Z,98084.59
2023-05-15T02:57:28.500Z,98081.00
2023-05-15T02:59:57.170Z,98083.69
2023-05-15T03:02:24.039Z,98082.31
2023-05-15T03:04:50.859Z,98078.72
2023-05-15T03:07:17.471Z,98080.72
2023-05-15T03:09:44.158Z,98079.03
2023-05-15T03:12:11.247Z,98076.56
2023-05-15T03:14:37.983Z,98071.34
2023-05-15T03:17:05.186Z,98074.97
2023-05-15T03:19:31.968Z,98084.91
2023-05-15T03:21:58.675Z,98080.03
2023-05-15T03:24:25.449Z,98076.72
2023-05-15T03:26:52.111Z,98072.94
2023-05-15T03:29:19.898Z,98066.75
2023-05-15T03:31:46.616Z,98074.66
2023-05-15T03:34:13.411Z,98075.75
2023-05-15T03:36:41.011Z,98071.97
2023-05-15T03:39:07.708Z,98086.09
2023-05-15T03:41:34.376Z,98078.81
2023-05-15T03:44:01.158Z,98085.75
2023-05-15T03:46:27.836Z,98089.00
2023-05-15T03:48:55.861Z,98088.84
2023-05-15T03:51:24.140Z,98092.41
2023-05-15T03:53:54.143Z,98094.66
2023-05-15T03:56:23.177Z,98090.09
2023-05-15T03:58:49.901Z,98094.38
2023-05-15T04:01:16.575Z,98079.25
2023-05-15T04:03:43.376Z,98084.59
2023-05-15T04:06:10.143Z,98091.53
2023-05-15T04:08:36.786Z,98089.00
2023-05-15T04:11:03.447Z,98088.19
2023-05-15T04:13:30.072Z,98081.81
2023-05-15T04:15:56.727Z,98083.66
2023-05-15T04:18:23.448Z,98086.31
2023-05-15T04:20:50.508Z,98077.59
2023-05-15T04:23:17.112Z,98078.13
2023-05-15T04:25:46.563Z,98077.97
2023-05-15T04:28:14.037Z,98081.28
2023-05-15T04:30:40.714Z,98087.09
2023-05-15T04:33:07.863Z,98077.22
2023-05-15T04:35:34.626Z,98086.53
2023-05-15T04:38:01.906Z,98077.31
2023-05-15T04:40:29.270Z,98087.72
2023-05-15T04:42:56.120Z,98080.38
2023-05-15T04:45:24.903Z,98082.28
2023-05-15T04:47:51.898Z,98085.84
2023-05-15T04:50:18.650Z,98081.78
2023-05-15T04:52:45.648Z,98075.59
2023-05-15T04:55:12.334Z,98082.97
2023-05-15T04:57:38.986Z,98072.59
2023-05-15T05:00:11.873Z,98074.50
2023-05-15T05:02:40.007Z,98073.66
2023-05-15T05:05:07.563Z,98081.00
2023-05-15T05:07:34.803Z,98073.06
2023-05-15T05:10:02.166Z,98076.84
2023-05-15T05:12:28.930Z,98078.28
2023-05-15T05:14:56.675Z,98078.53
2023-05-15T05:17:23.456Z,98079.69
2023-05-15T05:19:50.287Z,98085.81
2023-05-15T05:22:16.985Z,98085.28
2023-05-15T05:24:43.646Z,98089.69
2023-05-15T05:27:10.446Z,98088.19
2023-05-15T05:29:37.137Z,98085.03
2023-05-15T05:32:03.996Z,98086.09
2023-05-15T05:34:30.752Z,98074.09
2023-05-15T05:36:57.474Z,98074.41
2023-05-15T05:39:24.125Z,98073.81
2023-05-15T05:41:50.876Z,98078.88
2023-05-15T05:44:17.674Z,98084.88
2023-05-15T05:46:45.445Z,98079.47
2023-05-15T05:49:12.188Z,98084.69
2023-05-15T05:51:39.198Z,98075.91
2023-05-15T05:54:05.909Z,98072.28
2023-05-15T05:56:32.715Z,98080.25
2023-05-15T05:59:01.771Z,98075.59
2023-05-15T06:01:28.616Z,98069.50
2023-05-15T06:03:55.936Z,98066.25
2023-05-15T06:06:22.914Z,98073.84
2023-05-15T06:08:49.630Z,98075.03
2023-05-15T06:11:16.415Z,98084.31
2023-05-15T06:13:43.553Z,98081.19
2023-05-15T06:16:10.463Z,98083.34
2023-05-15T06:18:37.346Z,98075.31
2023-05-15T06:21:04.093Z,98069.16
2023-05-15T06:23:31.074Z,98071.28
2023-05-15T06:25:57.911Z,98072.28
2023-05-15T06:28:24.572Z,98076.25
2023-05-15T06:30:51.421Z,98075.63
2023-05-15T06:33:18.172Z,98082.47
2023-05-15T06:35:44.801Z,98082.72
2023-05-15T06:38:11.507Z,98088.22
2023-05-15T06:40:38.163Z,98081.50
2023-05-15T06:43:04.786Z,98072.00
2023-05-15T06:45:31.565Z,98069.28
2023-05-15T06:48:00.787Z,98062.56
2023-05-15T06:50:28.403Z,98062.97
2023-05-15T06:52:55.129Z,98061.50
2023-05-15T06:55:21.792Z,98061.84
2023-05-15T06:57:48.396Z,98062.22
2023-05-15T07:00:15.588Z,98073.91
2023-05-15T07:02:43.694Z,98078.75
2023-05-15T07:05:11.358Z,98076.94
2023-05-15T07:07:38.145Z,98083.50
2023-05-15T07:10:05.500Z,98072.31
2023-05-15T07:12:33.062Z,98080.53
2023-05-15T07:14:59.702Z,98084.13
2023-05-15T07:17:26.499Z,98086.47
2023-05-15T07:19:53.204Z,98086.00
2023-05-15T07:22:19.866Z,98086.00
2023-05-15T07:24:47.562Z,98089.44
2023-05-15T07:27:14.420Z,98091.94
2023-05-15T07:29:41.047Z,98092.44
2023-05-15T07:32:08.023Z,98092.31
2023-05-15T07:34:34.843Z,98087.81
2023-05-15T07:37:01.473Z,98093.00
2023-05-15T07:39:28.152Z,98085.03
2023-05-15T07:41:54.828Z,98079.84
2023-05-15T07:44:21.498Z,98083.16
2023-05-15T07:46:48.225Z,98078.41
2023-05-15T07:49:14.875Z,98072.56
2023-05-15T07:51:42.611Z,98069.50
2023-05-15T07:54:09.241Z,98072.75
2023-05-15T07:56:36.042Z,98050.47
2023-05-15T07:59:02.777Z,98043.84
2023-05-15T08:01:30.760Z,98048.47
2023-05-15T08:03:59.311Z,98042.78
2023-05-15T08:06:26.140Z,98039.69
2023-05-15T08:08:52.848Z,98035.38
2023-05-15T08:11:19.557Z,98030.81
2023-05-15T08:13:46.269Z,98018.41
2023-05-15T08:16:13.026Z,98019.69
2023-05-15T08:18:39.777Z,98024.25
2023-05-15T08:21:06.625Z,98026.91
2023-05-15T08:23:33.289Z,98021.91
2023-05-15T08:25:59.869Z,98038.28
2023-05-15T08:28:26.503Z,98020.63
2023-05-15T08:30:53.240Z,98018.06
2023-05-15T08:33:19.960Z,98008.34
2023-05-15T08:35:46.612Z,98019.19
2023-05-15T08:38:13.420Z,98023.03
2023-05-15T08:40:45.235Z,98026.31
2023-05-15T08:43:17.612Z,98025.03
2023-05-15T08:45:44.401Z,98021.75
2023-05-15T08:48:17.283Z,98029.88
2023-05-15T08:50:44.522Z,98036.25
2023-05-15T08:53:13.170Z,98039.28
2023-05-15T08:55:40.557Z,98036.59
2023-05-15T08:58:09.299Z,98034.50
2023-05-15T09:00:36.135Z,98033.38
2023-05-15T09:03:03.070Z,98032.28
2023-05-15T09:05:30.376Z,98009.19
2023-05-15T09:08:01.942Z,97995.56
2023-05-15T09:10:30.501Z,97991.41
2023-05-15T09:12:59.240Z,97999.84
2023-05-15T09:15:26.690Z,97991.00
2023-05-15T09:17:54.633Z,97992.44
2023-05-15T09:20:28.634Z,97993.78
2023-05-15T09:22:56.485Z,97988.34
2023-05-15T09:25:38.174Z,98007.81
2023-05-15T09:28:06.372Z,97999.47
2023-05-15T09:30:34.665Z,98005.94
2023-05-15T09:33:03.599Z,98015.81
2023-05-15T09:35:38.447Z,98024.56
2023-05-15T09:38:12.448Z,98020.63
2023-05-15T09:40:40.815Z,98022.97
2023-05-15T09:43:10.897Z,98033.84
2023-05-15T09:45:37.769Z,98048.19
2023-05-15T09:48:06.502Z,98050.00
2023-05-15T09:50:38.526Z,98056.97
2023-05-15T09:53:05.941Z,98062.78
2023-05-15T09:55:34.620Z,98060.34
2023-05-15T09:58:15.433Z,98056.97
2023-05-15T10:00:48.051Z,98043.94
2023-05-15T10:03:18.008Z,98063.84
2023-05-15T10:05:45.053Z,98071.97
2023-05-15T10:08:12.652Z,98069.97
2023-05-15T10:10:39.773Z,98060.59
2023-05-15T10:13:08.375Z,98067.72
2023-05-15T10:15:35.471Z,98074.00
2023-05-15T10:18:04.875Z,98095.00
2023-05-15T10:20:35.725Z,98103.00
2023-05-15T10:23:05.662Z,98093.25
2023-05-15T10:25:42.003Z,98095.06
2023-05-15T10:28:11.254Z,98091.19
2023-05-15T10:30:38.743Z,98083.59
2023-05-15T10:33:07.151Z,98072.59
2023-05-15T10:35:35.012Z,98076.06
2023-05-15T10:38:05.489Z,98070.47
2023-05-15T10:40:33.716Z,98060.91
2023-05-15T10:43:03.167Z,98065.72
2023-05-15T10:45:31.432Z,98070.59
2023-05-15T10:47:59.536Z,98064.34
2023-05-15T10:50:27.466Z,98051.78
2023-05-15T10:52:55.741Z,98051.31
2023-05-15T10:55:23.100Z,98035.06
2023-05-15T10:57:50.031Z,98030.50
2023-05-15T11:00:28.824Z,98013.31
2023-05-15T11:02:58.579Z,97998.38
2023-05-15T11:05:26.190Z,97991.91
2023-05-15T11:08:25.922Z,97991.56
2023-05-15T11:10:53.865Z,97992.56
2023-05-15T11:13:21.336Z,97992.53
2023-05-15T11:15:49.200Z,97999.22
2023-05-15T11:18:16.460Z,97995.94
2023-05-15T11:20:52.251Z,97982.69
2023-05-15T11:23:23.122Z,97982.81
2023-05-15T11:25:54.856Z,97995.53
2023-05-15T11:28:22.761Z,97999.19
2023-05-15T11:30:52.152Z,97984.09
2023-05-15T11:33:20.737Z,97984.66
2023-05-15T11:35:48.449Z,97967.34
2023-05-15T11:38:25.341Z,97971.63
2023-05-15T11:40:55.780Z,97958.34
2023-05-15T11:43:24.731Z,97961.81
2023-05-15T11:46:08.448Z,97943.41
2023-05-15T11:48:48.310Z,97936.94
2023-05-15T11:51:27.523Z,97935.44
2023-05-15T11:53:55.848Z,97943.16
2023-05-15T11:56:29.868Z,97944.03
2023-05-15T11:59:02.253Z,97942.06
2023-05-15T12:01:39.059Z,97940.25
2023-05-15T12:04:12.880Z,97928.94
2023-05-15T12:06:39.750Z,97940.38
2023-05-15T12:09:07.560Z,97938.28
2023-05-15T12:11:34.224Z,97936.66
2023-05-15T12:14:00.925Z,97927.22
2023-05-15T12:16:28.491Z,97931.28
2023-05-15T12:18:58.186Z,97938.50
2023-05-15T12:21:27.229Z,97938.22
2023-05-15T12:24:07.188Z,97937.22
2023-05-15T12:26:35.002Z,97936.03
2023-05-15T12:29:02.083Z,97937.19
2023-05-15T12:31:29.142Z,97940.19
2023-05-15T12:33:56.722Z,97929.31
2023-05-15T12:36:23.454Z,97926.75
2023-05-15T12:38:50.559Z,97943.28
2023-05-15T12:41:17.458Z,97945.75
2023-05-15T12:43:44.164Z,97950.75
2023-05-15T12:46:13.375Z,97952.91
2023-05-15T12:48:40.499Z,97953.16
2023-05-15T12:51:08.112Z,97966.94
2023-05-15T12:53:34.969Z,98001.13
2023-05-15T12:56:02.144Z,98010.56
2023-05-15T12:58:28.958Z,98007.41
2023-05-15T13:00:56.916Z,98013.66
2023-05-15T13:03:25.064Z,98039.75
2023-05-15T13:05:52.343Z,98049.88
2023-05-15T13:08:19.425Z,98056.84
2023-05-15T13:10:47.679Z,98060.78
2023-05-15T13:13:16.488Z,98044.47
2023-05-15T13:15:45.103Z,98049.28
2023-05-15T13:18:14.159Z,98054.22
2023-05-15T13:20:46.355Z,98055.66
2023-05-15T13:23:16.035Z,98053.06
2023-05-15T13:25:43.552Z,98049.41
2023-05-15T13:28:11.553Z,98045.72
2023-05-15T13:30:41.587Z,98038.75
2023-05-15T13:33:13.007Z,98036.22
2023-05-15T13:35:41.107Z,98038.09
2023-05-15T13:38:11.170Z,98033.50
2023-05-15T13:40:38.912Z,98042.47
2023-05-15T13:43:08.649Z,98031.41
2023-05-15T13:45:35.656Z,98032.66
2023-05-15T13:48:02.562Z,98040.06
2023-05-15T13:50:29.245Z,98034.31
2023-05-15T13:52:56.337Z,98034.53
2023-05-15T13:55:23.491Z,98040.97
2023-05-15T13:57:51.211Z,98035.25
2023-05-15T14:00:18.613Z,98036.50
2023-05-15T14:02:45.892Z,98033.16
2023-05-15T14:05:14.428Z,98016.41
2023-05-15T14:07:41.442Z,98021.50
2023-05-15T14:10:08.534Z,98018.50
2023-05-15T14:12:35.975Z,98024.69
2023-05-15T14:15:02.788Z,98020.19
2023-05-15T14:17:29.487Z,98024.38
2023-05-15T14:19:56.246Z,98019.13
2023-05-15T14:22:24.838Z,98024.81
2023-05-15T14:24:52.802Z,98021.16
2023-05-15T14:27:19.693Z,98011.75
2023-05-15T14:29:47.249Z,98013.66
2023-05-15T14:32:14.016Z,98000.84
2023-05-15T14:34:40.728Z,98001.00
2023-05-15T14:37:07.402Z,98001.84
2023-05-15T14:39:35.245Z,97997.06
2023-05-15T14:42:02.021Z,97998.41
2023-05-15T14:44:28.649Z,97989.41
2023-05-15T14:47:12.743Z,97998.25
2023-05-15T14:49:39.757Z,97991.44
2023-05-15T14:52:09.149Z,97996.03
2023-05-15T14:54:36.446Z,97990.66
2023-05-15T14:57:03.874Z,97991.25
2023-05-15T14:59:31.016Z,97987.81
2023-05-15T15:01:58.010Z,97985.84
2023-05-15T15:04:26.604Z,97985.28
2023-05-15T15:06:56.834Z,97991.63
2023-05-15T15:09:24.169Z,97988.63
2023-05-15T15:11:51.327Z,97990.19
2023-05-15T15:14:18.114Z,97989.94
2023-05-15T15:16:45.963Z,97983.63
2023-05-15T15:19:13.484Z,97989.09
2023-05-15T15:21:40.358Z,97986.34
2023-05-15T15:24:07.515Z,97980.75
2023-05-15T15:26:34.183Z,97959.66
2023-05-15T15:29:01.114Z,97950.31
2023-05-15T15:31:29.511Z,97963.94
2023-05-15T15:33:57.488Z,97955.25
2023-05-15T15:36:24.916Z,97964.38
2023-05-15T15:38:51.832Z,97961.13
2023-05-15T15:41:18.547Z,97957.34
2023-05-15T15:43:45.300Z,97965.28
2023-05-15T15:46:12.000Z,97961.88
2023-05-15T15:48:38.663Z,97947.72
2023-05-15T15:51:05.634Z,97956.34
2023-05-15T15:53:34.341Z,97965.56
2023-05-15T15:56:01.537Z,97968.75
2023-05-15T15:58:29.300Z,97968.44
2023-05-15T16:00:56.626Z,97970.94
2023-05-15T16:03:23.379Z,97975.84
2023-05-15T16:05:50.120Z,97970.59
2023-05-15T16:08:16.738Z,97973.81
2023-05-15T16:10:44.442Z,97976.19
2023-05-15T16:13:11.034Z,97981.69
2023-05-15T16:15:37.688Z,97988.72
2023-05-15T16:18:04.620Z,97998.97
2023-05-15T16:20:32.329Z,98002.16
2023-05-15T16:22:59.543Z,97991.34
2023-05-15T16:25:26.170Z,97992.00
2023-05-15T16:27:52.918Z,97992.84
2023-05-15T16:30:19.688Z,97998.63
2023-05-15T16:32:46.456Z,98012.88
2023-05-15T16:35:13.150Z,98007.19
2023-05-15T16:37:39.849Z,98014.97
2023-05-15T16:40:07.309Z,98013.47
2023-05-15T16:42:37.976Z,98019.41
2023-05-15T16:45:06.044Z,98011.19
2023-05-15T16:47:33.109Z,98007.75
2023-05-15T16:49:59.861Z,98001.75
2023-05-15T16:52:26.587Z,98000.81
2023-05-15T16:54:53.556Z,98006.63
2023-05-15T16:57:20.346Z,98001.00
2023-05-15T16:59:47.921Z,98000.00
2023-05-15T17:02:14.748Z,98011.03
2023-05-15T17:04:41.409Z,98007.59
2023-05-15T17:07:09.162Z,98005.47
2023-05-15T17:09:38.326Z,98011.69
2023-05-15T17:12:05.657Z,98012.19
2023-05-15T17:14:32.333Z,98009.91
2023-05-15T17:16:58.945Z,98015.25
2023-05-15T17:19:25.666Z,98020.44
2023-05-15T17:21:52.354Z,98020.91
2023-05-15T17:24:19.014Z,98012.09
2023-05-15T17:26:45.658Z,98005.09
2023-05-15T17:29:12.400Z,98005.88
2023-05-15T17:31:39.160Z,98011.31
2023-05-15T17:34:05.785Z,98023.41
2023-05-15T17:36:33.642Z,98023.09
2023-05-15T17:39:00.577Z,98023.06
2023-05-15T17:41:27.246Z,98015.06
2023-05-15T17:43:53.989Z,98017.47
2023-05-15T17:46:20.961Z,98021.66
2023-05-15T17:48:47.763Z,98017.00
2023-05-15T17:51:14.451Z,98019.19
2023-05-15T17:53:41.085Z,98024.03
2023-05-15T17:56:08.186Z,98038.50
2023-05-15T17:58:34.815Z,98041.44
2023-05-15T18:01:02.566Z,98045.41
2023-05-15T18:03:29.541Z,98049.38
2023-05-15T18:05:56.168Z,98059.16
2023-05-15T18:08:22.907Z,98051.09
2023-05-15T18:10:49.540Z,98059.09
2023-05-15T18:13:16.338Z,98059.63
2023-05-15T18:15:43.193Z,98070.41
2023-05-15T18:18:10.048Z,98091.53
2023-05-15T18:20:36.690Z,98108.84
2023-05-15T18:23:03.316Z,98104.97
2023-05-15T18:25:30.558Z,98112.53
2023-05-15T18:27:57.202Z,98102.47
2023-05-15T18:30:24.215Z,98097.97
2023-05-15T18:32:50.944Z,98103.53
2023-05-15T18:35:17.779Z,98095.28
2023-05-15T18:37:44.434Z,98095.53
2023-05-15T18:40:11.392Z,98094.06
2023-05-15T18:42:38.146Z,98092.22
2023-05-15T18:45:05.821Z,98096.34
2023-05-15T18:47:32.542Z,98102.06
2023-05-15T18:49:59.314Z,98113.78
2023-05-15T18:52:26.912Z,98136.06
2023-05-15T18:54:54.166Z,98141.06
2023-05-15T18:57:21.037Z,98158.31
2023-05-15T18:59:48.085Z,98167.88
2023-05-15T19:02:14.941Z,98168.59
2023-05-15T19:04:41.631Z,98174.34
2023-05-15T19:07:08.337Z,98181.16
2023-05-15T19:09:35.392Z,98197.81
2023-05-15T19:12:02.877Z,98193.00
2023-05-15T19:14:29.620Z,98190.84
2023-05-15T19:16:56.427Z,98200.69
2023-05-15T19:19:23.400Z,98198.19
2023-05-15T19:21:51.821Z,98192.94
2023-05-15T19:24:20.453Z,98190.78
2023-05-15T19:26:47.157Z,98203.19
2023-05-15T19:29:13.857Z,98194.09
2023-05-15T19:31:40.676Z,98192.41
2023-05-15T19:34:07.397Z,98192.81
2023-05-15T19:36:34.095Z,98207.09
2023-05-15T19:39:00.745Z,98207.53
2023-05-15T19:41:27.426Z,98209.44
2023-05-15T19:43:54.066Z,98207.97
2023-05-15T19:46:20.888Z,98202.09
2023-05-15T19:48:47.689Z,98208.66
2023-05-15T19:51:14.328Z,98206.22
2023-05-15T19:53:41.421Z,98216.06
2023-05-15T19:56:08.286Z,98213.78
2023-05-15T19:58:35.225Z,98221.25
2023-05-15T20:01:01.929Z,98228.19
2023-05-15T20:03:33.209Z,98228.03
2023-05-15T20:06:01.387Z,98223.78
2023-05-15T20:08:28.673Z,98230.84
2023-05-15T20:10:55.908Z,98238.66
2023-05-15T20:13:23.564Z,98240.22
2023-05-15T20:15:57.608Z,98238.97
2023-05-15T20:18:25.389Z,98235.59
2023-05-15T20:20:52.996Z,98246.28
2023-05-15T20:23:20.452Z,98249.50
2023-05-15T20:25:47.800Z,98242.84
2023-05-15T20:28:14.449Z,98246.69
2023-05-15T20:30:41.555Z,98253.34
2023-05-15T20:33:08.320Z,98252.09
2023-05-15T20:35:35.212Z,98258.31
2023-05-15T20:38:03.249Z,98258.53
2023-05-15T20:40:30.937Z,98259.97
2023-05-15T20:42:57.716Z,98257.59
2023-05-15T20:45:24.711Z,98260.22
2023-05-15T20:47:51.418Z,98256.59
2023-05-15T20:50:18.283Z,98258.94
2023-05-15T20:52:46.165Z,98264.53
2023-05-15T20:55:19.378Z,98260.72
2023-05-15T20:57:48.147Z,98266.72
2023-05-15T21:00:16.420Z,98259.59
2023-05-15T21:02:44.177Z,98262.25
2023-05-15T21:05:10.905Z,98258.66
2023-05-15T21:07:37.696Z,98262.59
2023-05-15T21:10:04.950Z,98256.88
2023-05-15T21:12:34.885Z,98266.19
2023-05-15T21:15:02.089Z,98265.28
2023-05-15T21:17:28.852Z,98269.69
2023-05-15T21:19:57.515Z,98270.44
2023-05-15T21:22:24.758Z,98266.91
2023-05-15T21:24:51.702Z,98270.31
2023-05-15T21:27:18.447Z,98279.34
2023-05-15T21:29:45.281Z,98270.75
2023-05-15T21:32:11.911Z,98272.66
2023-05-15T21:34:39.492Z,98274.50
2023-05-15T21:37:06.112Z,98272.88
2023-05-15T21:39:32.734Z,98284.72
2023-05-15T21:41:59.326Z,98281.00
2023-05-15T21:44:26.002Z,98281.25
2023-05-15T21:46:52.696Z,98273.22
2023-05-15T21:49:19.439Z,98276.72
2023-05-15T21:51:46.608Z,98270.00
2023-05-15T21:54:13.539Z,98278.03
2023-05-15T21:56:41.069Z,98287.75
2023-05-15T21:59:07.774Z,98286.84
2023-05-15T22:01:34.546Z,98286.75
2023-05-15T22:04:01.366Z,98286.84
2023-05-15T22:06:28.082Z,98285.09
2023-05-15T22:08:55.178Z,98286.09
2023-05-15T22:11:21.810Z,98286.28
2023-05-15T22:13:48.505Z,98293.22
2023-05-15T22:16:15.912Z,98287.06
2023-05-15T22:18:44.839Z,98291.59
2023-05-15T22:21:11.657Z,98290.00
2023-05-15T22:23:38.359Z,98300.44
2023-05-15T22:26:05.062Z,98296.00
2023-05-15T22:28:31.716Z,98290.84
2023-05-15T22:30:58.327Z,98286.28
2023-05-15T22:33:25.051Z,98293.34
2023-05-15T22:35:52.723Z,98295.31
2023-05-15T22:38:20.086Z,98298.88
2023-05-15T22:40:53.807Z,98290.38
2023-05-15T22:43:22.073Z,98293.81
2023-05-15T22:45:48.736Z,98294.06
2023-05-15T22:48:15.656Z,98299.56
2023-05-15T22:50:43.719Z,98293.63
2023-05-15T22:53:10.520Z,98291.88
2023-05-15T22:55:37.242Z,98291.25
2023-05-15T22:58:04.122Z,98289.13
2023-05-15T23:00:31.302Z,98286.63
2023-05-15T23:02:58.288Z,98285.19
2023-05-15T23:05:25.831Z,98286.38
2023-05-15T23:07:52.674Z,98298.75
2023-05-15T23:10:19.492Z,98299.38
2023-05-15T23:12:46.267Z,98302.81
2023-05-15T23:15:13.012Z,98293.97
2023-05-15T23:17:40.338Z,98299.50
2023-05-15T23:20:10.470Z,98301.34
2023-05-15T23:22:37.413Z,98297.94
2023-05-15T23:25:04.888Z,98302.53
2023-05-15T23:27:31.741Z,98298.34
2023-05-15T23:29:58.726Z,98299.44
2023-05-15T23:32:25.371Z,98293.44
2023-05-15T23:34:52.919Z,98296.31
2023-05-15T23:37:19.639Z,98304.53
2023-05-15T23:39:46.296Z,98303.81
2023-05-15T23:42:13.475Z,98295.03
2023-05-15T23:44:40.132Z,98295.56
2023-05-15T23:47:06.983Z,98294.84
2023-05-15T23:49:33.727Z,98295.03
2023-05-15T23:52:00.508Z,98290.53
2023-05-15T23:54:27.877Z,98295.84
2023-05-15T23:56:54.838Z,98302.31
2023-05-15T23:59:21.692Z,98299.72
